Dillon, Montana
Current Conditions -  °F | °C
As of 5:53 AM on Thursday 30 Oct 2014 (Local Time) from KDLN Reporting Station
Overcast Overcast  
Wind Chill:   Ceiling: 9500
Heat Index:   Visibility: 10mi
Dew Point: -2°   Wind: 6mph
Humidity: 70%   Direction: 170°S
Pressure: 30.27"   Gusts: NA
Location:  45.22°N, 112.64°W
Report Text: KDLN 301153Z AUTO 17005KT 10SM OVC095 03/M02 A3027 RMK AO2 SLP246 T00281022 10028 21011 58001
Loading
Personal Weather Stations






























Interactive Weather Map
Tropical Storm Tracking
New forecast layout! Learn more

10-Day Weather Forecast

Advertisements
Track Severe Weather on mobile